createdAt,value
2016-11-29T00:00:26.387Z,24.35
2016-11-29T00:01:07.146Z,24.39
2016-11-29T00:01:47.905Z,24.47
2016-11-29T00:02:28.660Z,24.49
2016-11-29T00:03:09.418Z,24.45
2016-11-29T00:03:50.166Z,24.39
2016-11-29T00:04:30.942Z,24.39
2016-11-29T00:05:11.697Z,24.39
2016-11-29T00:05:52.496Z,24.45
2016-11-29T00:06:33.225Z,24.39
2016-11-29T00:07:14.000Z,24.43
2016-11-29T00:07:54.743Z,24.43
2016-11-29T00:08:35.496Z,24.45
2016-11-29T00:09:16.280Z,24.37
2016-11-29T00:09:57.009Z,24.34
2016-11-29T00:10:37.777Z,24.42
2016-11-29T00:11:18.533Z,24.34
2016-11-29T00:11:59.905Z,24.42
2016-11-29T00:12:40.651Z,24.39
2016-11-29T00:13:21.424Z,24.43
2016-11-29T00:14:02.191Z,24.47
2016-11-29T00:14:42.931Z,24.37
2016-11-29T00:15:25.253Z,24.39
2016-11-29T00:16:06.013Z,24.45
2016-11-29T00:16:46.759Z,24.4
2016-11-29T00:17:27.497Z,24.46
2016-11-29T00:18:08.270Z,24.46
2016-11-29T00:18:49.022Z,24.42
2016-11-29T00:19:29.791Z,24.4
2016-11-29T00:20:10.551Z,24.42
2016-11-29T00:20:51.323Z,24.35
2016-11-29T00:21:32.071Z,24.4
2016-11-29T00:22:12.818Z,24.34
2016-11-29T00:22:53.579Z,24.4
2016-11-29T00:23:34.331Z,24.42
2016-11-29T00:24:15.081Z,24.4
2016-11-29T00:24:55.845Z,24.45
2016-11-29T00:25:36.598Z,24.35
2016-11-29T00:26:17.357Z,24.35
2016-11-29T00:26:58.121Z,24.4
2016-11-29T00:27:38.882Z,24.39
2016-11-29T00:28:19.633Z,24.35
2016-11-29T00:29:00.407Z,24.42
2016-11-29T00:29:41.158Z,24.42
2016-11-29T00:30:21.903Z,24.39
2016-11-29T00:31:02.691Z,24.39
2016-11-29T00:31:43.430Z,24.39
2016-11-29T00:32:24.201Z,24.4
2016-11-29T00:33:04.973Z,24.39
2016-11-29T00:33:45.722Z,24.39
2016-11-29T00:34:26.477Z,24.34
2016-11-29T00:35:07.234Z,24.39
2016-11-29T00:35:47.987Z,24.4
2016-11-29T00:36:28.728Z,24.37
2016-11-29T00:37:09.483Z,24.34
2016-11-29T00:37:50.239Z,24.35
2016-11-29T00:38:30.992Z,24.4
2016-11-29T00:39:11.745Z,24.34
2016-11-29T00:39:52.549Z,24.3
2016-11-29T00:40:33.307Z,24.39
2016-11-29T00:41:14.054Z,24.42
2016-11-29T00:41:54.857Z,24.37
2016-11-29T00:42:35.612Z,24.4
2016-11-29T00:43:16.381Z,24.4
2016-11-29T00:43:57.159Z,24.39
2016-11-29T00:44:37.939Z,24.3
2016-11-29T00:45:18.686Z,24.37
2016-11-29T00:45:59.438Z,24.35
2016-11-29T00:46:40.195Z,24.37
2016-11-29T00:47:20.928Z,24.35
2016-11-29T00:48:01.700Z,24.32
2016-11-29T00:48:42.451Z,24.39
2016-11-29T00:49:23.197Z,24.35
2016-11-29T00:50:03.954Z,24.39
2016-11-29T00:50:44.739Z,24.42
2016-11-29T00:51:25.517Z,24.42
2016-11-29T00:52:06.275Z,24.4
2016-11-29T00:52:48.044Z,24.32
2016-11-29T00:53:28.794Z,24.42
2016-11-29T00:54:09.545Z,24.42
2016-11-29T00:54:50.346Z,24.46
2016-11-29T00:55:31.117Z,24.32
2016-11-29T00:56:11.869Z,24.37
2016-11-29T00:56:52.621Z,24.4
2016-11-29T00:57:33.399Z,24.34
2016-11-29T00:58:14.134Z,24.4
2016-11-29T00:58:54.920Z,24.3
2016-11-29T00:59:35.671Z,24.37
2016-11-29T01:00:16.416Z,24.32
2016-11-29T01:00:57.158Z,24.4
2016-11-29T01:01:37.932Z,24.37
2016-11-29T01:02:18.682Z,24.35
2016-11-29T01:02:59.425Z,24.4
2016-11-29T01:03:40.215Z,24.34
2016-11-29T01:04:20.962Z,24.4
2016-11-29T01:05:01.721Z,24.37
2016-11-29T01:05:43.093Z,24.35
2016-11-29T01:06:23.856Z,24.4
2016-11-29T01:07:04.579Z,24.37
2016-11-29T01:07:45.342Z,24.37
2016-11-29T01:08:26.104Z,24.31
2016-11-29T01:09:06.861Z,24.37
2016-11-29T01:09:47.622Z,24.4
2016-11-29T01:10:28.369Z,24.37
2016-11-29T01:11:09.129Z,24.35
2016-11-29T01:11:49.870Z,24.34
2016-11-29T01:12:30.642Z,24.42
2016-11-29T01:13:11.411Z,24.37
2016-11-29T01:13:52.165Z,24.39
2016-11-29T01:14:32.944Z,24.32
2016-11-29T01:15:13.679Z,24.37
2016-11-29T01:15:54.428Z,24.3
2016-11-29T01:16:35.187Z,24.35
2016-11-29T01:17:15.979Z,24.34
2016-11-29T01:17:56.714Z,24.34
2016-11-29T01:18:37.474Z,24.32
2016-11-29T01:19:18.261Z,24.3
2016-11-29T01:19:58.999Z,24.39
2016-11-29T01:20:39.756Z,24.31
2016-11-29T01:21:20.524Z,24.39
2016-11-29T01:22:01.287Z,24.3
2016-11-29T01:22:42.033Z,24.32
2016-11-29T01:23:22.813Z,24.3
2016-11-29T01:24:03.581Z,24.31
2016-11-29T01:24:44.310Z,24.45
2016-11-29T01:25:25.077Z,24.37
2016-11-29T01:26:05.823Z,24.39
2016-11-29T01:26:46.572Z,24.43
2016-11-29T01:27:27.336Z,24.31
2016-11-29T01:28:08.097Z,24.46
2016-11-29T01:28:48.830Z,24.35
2016-11-29T01:29:29.579Z,24.28
2016-11-29T01:30:10.344Z,24.32
2016-11-29T01:30:51.099Z,24.34
2016-11-29T01:31:31.865Z,24.37
2016-11-29T01:32:12.618Z,24.35
2016-11-29T01:32:53.379Z,24.34
2016-11-29T01:33:34.127Z,24.34
2016-11-29T01:34:14.922Z,24.31
2016-11-29T01:34:55.680Z,24.32
2016-11-29T01:35:36.437Z,24.32
2016-11-29T01:36:17.215Z,24.32
2016-11-29T01:36:57.980Z,24.32
2016-11-29T01:37:38.742Z,24.31
2016-11-29T01:38:19.543Z,24.32
2016-11-29T01:39:00.310Z,24.34
2016-11-29T01:39:41.025Z,24.25
2016-11-29T01:40:21.813Z,24.32
2016-11-29T01:41:02.561Z,24.34
2016-11-29T01:41:43.282Z,24.31
2016-11-29T01:42:24.068Z,24.35
2016-11-29T01:43:04.811Z,24.34
2016-11-29T01:43:45.564Z,24.31
2016-11-29T01:44:26.314Z,24.4
2016-11-29T01:45:07.098Z,24.32
2016-11-29T01:45:47.855Z,24.34
2016-11-29T01:46:28.597Z,24.34
2016-11-29T01:47:09.375Z,24.35
2016-11-29T01:47:50.119Z,24.34
2016-11-29T01:48:30.863Z,24.28
2016-11-29T01:49:11.640Z,24.35
2016-11-29T01:49:52.413Z,24.32
2016-11-29T01:50:33.181Z,24.39
2016-11-29T01:51:13.941Z,24.4
2016-11-29T01:51:54.690Z,24.35
2016-11-29T01:52:35.432Z,24.39
2016-11-29T01:53:16.203Z,24.32
2016-11-29T01:53:56.988Z,24.34
2016-11-29T01:54:37.737Z,24.28
2016-11-29T01:55:18.494Z,24.32
2016-11-29T01:55:59.253Z,24.42
2016-11-29T01:56:40.007Z,24.35
2016-11-29T01:57:20.753Z,24.34
2016-11-29T01:58:01.544Z,24.3
2016-11-29T01:58:42.315Z,24.39
2016-11-29T01:59:23.067Z,24.3
2016-11-29T02:00:03.840Z,24.35
2016-11-29T02:00:44.608Z,24.37
2016-11-29T02:01:25.333Z,24.3
2016-11-29T02:02:06.093Z,24.3
2016-11-29T02:02:46.867Z,24.4
2016-11-29T02:03:27.592Z,24.4
2016-11-29T02:04:08.376Z,24.42
2016-11-29T02:04:49.162Z,24.42
2016-11-29T02:05:29.926Z,24.34
2016-11-29T02:06:10.682Z,24.37
2016-11-29T02:06:51.430Z,24.39
2016-11-29T02:07:32.191Z,24.39
2016-11-29T02:08:12.955Z,24.37
2016-11-29T02:08:53.681Z,24.35
2016-11-29T02:09:34.449Z,24.4
2016-11-29T02:10:15.201Z,24.35
2016-11-29T02:10:55.945Z,24.32
2016-11-29T02:11:36.712Z,24.39
2016-11-29T02:12:17.491Z,24.3
2016-11-29T02:12:58.273Z,24.35
2016-11-29T02:13:39.042Z,24.34
2016-11-29T02:14:19.864Z,24.21
2016-11-29T02:15:00.596Z,24.37
2016-11-29T02:15:41.355Z,24.39
2016-11-29T02:16:22.115Z,24.4
2016-11-29T02:17:02.878Z,24.35
2016-11-29T02:17:43.613Z,24.3
2016-11-29T02:18:24.380Z,24.31
2016-11-29T02:19:05.130Z,24.37
2016-11-29T02:19:45.898Z,24.32
2016-11-29T02:20:26.674Z,24.32
2016-11-29T02:21:07.446Z,24.31
2016-11-29T02:21:48.219Z,24.34
2016-11-29T02:22:28.971Z,24.3
2016-11-29T02:23:09.775Z,24.34
2016-11-29T02:23:50.530Z,24.34
2016-11-29T02:24:31.336Z,24.34
2016-11-29T02:25:12.104Z,24.34
2016-11-29T02:25:52.841Z,24.34
2016-11-29T02:26:33.580Z,24.34
2016-11-29T02:27:14.335Z,24.32
2016-11-29T02:27:55.094Z,24.28
2016-11-29T02:28:35.847Z,24.35
2016-11-29T02:29:16.614Z,24.31
2016-11-29T02:29:57.376Z,24.28
2016-11-29T02:30:38.111Z,24.3
2016-11-29T02:31:18.901Z,24.3
2016-11-29T02:31:59.651Z,24.3
2016-11-29T02:32:40.394Z,24.35
2016-11-29T02:33:21.169Z,24.28
2016-11-29T02:34:01.937Z,24.31
2016-11-29T02:34:42.691Z,24.25
2016-11-29T02:35:23.450Z,24.34
2016-11-29T02:36:04.237Z,24.37
2016-11-29T02:36:44.977Z,24.34
2016-11-29T02:37:25.733Z,24.28
2016-11-29T02:38:06.508Z,24.31
2016-11-29T02:38:47.279Z,24.34
2016-11-29T02:39:28.025Z,24.3
2016-11-29T02:40:08.790Z,24.32
2016-11-29T02:40:49.544Z,24.34
2016-11-29T02:41:30.309Z,24.32
2016-11-29T02:42:11.087Z,24.28
2016-11-29T02:42:51.831Z,24.37
2016-11-29T02:43:32.584Z,24.3
2016-11-29T02:44:13.351Z,24.3
2016-11-29T02:44:54.122Z,24.31
2016-11-29T02:45:34.866Z,24.32
2016-11-29T02:46:15.618Z,24.32
2016-11-29T02:46:56.400Z,24.28
2016-11-29T02:47:37.138Z,24.31
2016-11-29T02:48:17.902Z,24.31
2016-11-29T02:48:58.666Z,24.28
2016-11-29T02:49:39.404Z,24.21
2016-11-29T02:50:20.141Z,24.37
2016-11-29T02:51:00.896Z,24.32
2016-11-29T02:51:41.667Z,24.3
2016-11-29T02:52:22.407Z,24.34
2016-11-29T02:53:03.180Z,24.22
2016-11-29T02:53:43.923Z,24.25
2016-11-29T02:54:24.685Z,24.27
2016-11-29T02:55:05.456Z,24.28
2016-11-29T02:55:46.216Z,24.27
2016-11-29T02:56:26.957Z,24.22
2016-11-29T02:57:07.723Z,24.27
2016-11-29T02:57:48.507Z,24.3
2016-11-29T02:58:29.247Z,24.28
2016-11-29T02:59:09.991Z,24.28
2016-11-29T02:59:50.749Z,24.27
2016-11-29T03:00:31.525Z,24.22
2016-11-29T03:01:12.261Z,24.24
2016-11-29T03:01:53.050Z,24.3
2016-11-29T03:02:33.816Z,24.3
2016-11-29T03:03:14.546Z,24.27
2016-11-29T03:03:55.296Z,24.27
2016-11-29T03:04:36.073Z,24.31
2016-11-29T03:05:16.841Z,24.27
2016-11-29T03:05:57.580Z,24.22
2016-11-29T03:06:38.358Z,24.32
2016-11-29T03:07:19.104Z,24.21
2016-11-29T03:07:59.860Z,24.27
2016-11-29T03:08:40.651Z,24.27
2016-11-29T03:09:21.403Z,24.27
2016-11-29T03:10:02.162Z,24.28
2016-11-29T03:10:42.914Z,24.25
2016-11-29T03:11:23.669Z,24.28
2016-11-29T03:12:04.417Z,24.31
2016-11-29T03:12:45.175Z,24.25
2016-11-29T03:13:25.939Z,24.27
2016-11-29T03:14:06.671Z,24.24
2016-11-29T03:14:47.445Z,24.22
2016-11-29T03:15:28.216Z,24.24
2016-11-29T03:16:08.960Z,24.27
2016-11-29T03:16:49.740Z,24.21
2016-11-29T03:17:30.518Z,24.31
2016-11-29T03:18:11.287Z,24.28
2016-11-29T03:18:52.034Z,24.31
2016-11-29T03:19:32.826Z,24.18
2016-11-29T03:20:13.578Z,24.28
2016-11-29T03:20:54.354Z,24.21
2016-11-29T03:21:35.101Z,24.24
2016-11-29T03:22:15.863Z,24.27
2016-11-29T03:22:56.616Z,24.21
2016-11-29T03:23:37.377Z,24.32
2016-11-29T03:24:18.141Z,24.31
2016-11-29T03:24:58.875Z,24.2
2016-11-29T03:25:39.672Z,24.21
2016-11-29T03:26:20.461Z,24.15
2016-11-29T03:27:01.216Z,24.3
2016-11-29T03:27:42.649Z,24.15
2016-11-29T03:28:23.447Z,24.3
2016-11-29T03:29:04.187Z,24.28
2016-11-29T03:29:44.929Z,24.21
2016-11-29T03:30:25.713Z,24.21
2016-11-29T03:31:06.466Z,24.3
2016-11-29T03:31:47.240Z,24.3
2016-11-29T03:32:28.017Z,24.27
2016-11-29T03:33:08.772Z,24.18
2016-11-29T03:33:49.512Z,24.25
2016-11-29T03:34:30.272Z,24.15
2016-11-29T03:35:11.024Z,24.2
2016-11-29T03:35:51.758Z,24.31
2016-11-29T03:36:32.543Z,24.18
2016-11-29T03:37:13.299Z,24.27
2016-11-29T03:37:54.066Z,24.28
2016-11-29T03:38:34.817Z,24.22
2016-11-29T03:39:15.588Z,24.2
2016-11-29T03:39:56.358Z,24.2
2016-11-29T03:40:37.120Z,24.21
2016-11-29T03:41:17.913Z,24.24
2016-11-29T03:41:58.640Z,24.18
2016-11-29T03:42:39.404Z,24.21
2016-11-29T03:43:20.150Z,24.21
2016-11-29T03:44:00.929Z,24.22
2016-11-29T03:44:41.666Z,24.22
2016-11-29T03:45:22.450Z,24.2
2016-11-29T03:46:03.212Z,24.21
2016-11-29T03:46:43.951Z,24.16
2016-11-29T03:47:24.711Z,24.18
2016-11-29T03:48:05.489Z,24.21
2016-11-29T03:48:46.238Z,24.18
2016-11-29T03:49:26.995Z,24.24
2016-11-29T03:50:07.772Z,24.2
2016-11-29T03:50:48.546Z,24.24
2016-11-29T03:51:29.291Z,24.18
2016-11-29T03:52:10.075Z,24.21
2016-11-29T03:52:50.823Z,24.21
2016-11-29T03:53:31.603Z,24.16
2016-11-29T03:54:12.394Z,24.16
2016-11-29T03:54:53.148Z,24.21
2016-11-29T03:55:33.919Z,24.2
2016-11-29T03:56:14.677Z,24.21
2016-11-29T03:56:55.460Z,24.21
2016-11-29T03:57:36.196Z,24.21
2016-11-29T03:58:16.973Z,24.2
2016-11-29T03:58:57.746Z,24.2
2016-11-29T03:59:38.489Z,24.2
2016-11-29T04:00:19.260Z,24.21
2016-11-29T04:01:00.024Z,24.21
2016-11-29T04:01:40.783Z,24.2
2016-11-29T04:02:21.536Z,24.18
2016-11-29T04:03:02.309Z,24.22
2016-11-29T04:03:43.067Z,24.21
2016-11-29T04:04:24.622Z,24.25
2016-11-29T04:05:04.579Z,24.15
2016-11-29T04:05:45.332Z,24.2
2016-11-29T04:06:26.094Z,24.15
2016-11-29T04:07:07.626Z,24.22
2016-11-29T04:07:47.621Z,24.2
2016-11-29T04:08:28.374Z,24.2
2016-11-29T04:09:09.118Z,24.2
2016-11-29T04:09:49.868Z,24.16
2016-11-29T04:10:30.611Z,24.2
2016-11-29T04:11:11.380Z,24.15
2016-11-29T04:11:52.142Z,24.2
2016-11-29T04:12:32.911Z,24.21
2016-11-29T04:13:13.671Z,24.21
2016-11-29T04:13:54.451Z,24.21
2016-11-29T04:14:35.221Z,24.22
2016-11-29T04:15:15.960Z,24.21
2016-11-29T04:15:56.746Z,24.15
2016-11-29T04:16:37.506Z,24.18
2016-11-29T04:17:18.257Z,24.15
2016-11-29T04:17:59.063Z,24.09
2016-11-29T04:18:39.815Z,24.13
2016-11-29T04:19:20.569Z,24.18
2016-11-29T04:20:01.330Z,24.2
2016-11-29T04:20:42.101Z,24.15
2016-11-29T04:21:22.828Z,24.09
2016-11-29T04:22:03.618Z,24.15
2016-11-29T04:22:44.366Z,24.18
2016-11-29T04:23:25.116Z,24.15
2016-11-29T04:24:05.881Z,24.15
2016-11-29T04:24:46.600Z,24.2
2016-11-29T04:25:27.371Z,24.16
2016-11-29T04:26:08.140Z,24.22
2016-11-29T04:26:48.896Z,24.18
2016-11-29T04:27:29.686Z,24.15
2016-11-29T04:28:10.438Z,24.06
2016-11-29T04:28:51.201Z,24.16
2016-11-29T04:29:31.992Z,24.06
2016-11-29T04:30:12.757Z,24.09
2016-11-29T04:30:53.507Z,24.18
2016-11-29T04:31:34.239Z,24.12
2016-11-29T04:32:15.016Z,24.16
2016-11-29T04:32:55.771Z,24.09
2016-11-29T04:33:36.536Z,24.18
2016-11-29T04:34:17.309Z,24.16
2016-11-29T04:34:58.061Z,24.18
2016-11-29T04:35:38.795Z,24.16
2016-11-29T04:36:19.586Z,24.21
2016-11-29T04:37:00.346Z,24.15
2016-11-29T04:37:41.091Z,24.06
2016-11-29T04:38:21.869Z,24.06
2016-11-29T04:39:02.613Z,24.15
2016-11-29T04:39:43.389Z,24.1
2016-11-29T04:40:24.124Z,24.15
2016-11-29T04:41:04.915Z,24.1
2016-11-29T04:41:45.656Z,24.05
2016-11-29T04:42:26.421Z,24.16
2016-11-29T04:43:07.249Z,24.06
2016-11-29T04:43:47.984Z,24.15
2016-11-29T04:44:28.752Z,24.15
2016-11-29T04:45:09.516Z,24.21
2016-11-29T04:45:50.309Z,24.18
2016-11-29T04:46:31.067Z,24.22
2016-11-29T04:47:11.834Z,24.15
2016-11-29T04:47:52.584Z,24.16
2016-11-29T04:48:33.306Z,24.08
2016-11-29T04:49:14.080Z,24.06
2016-11-29T04:49:54.830Z,24.21
2016-11-29T04:50:35.576Z,24.08
2016-11-29T04:51:16.309Z,24.08
2016-11-29T04:51:57.089Z,24.18
2016-11-29T04:52:37.828Z,24.16
2016-11-29T04:53:18.565Z,24.09
2016-11-29T04:53:59.352Z,24.03
2016-11-29T04:54:40.109Z,24.15
2016-11-29T04:55:20.843Z,24.1
2016-11-29T04:56:01.594Z,24.15
2016-11-29T04:56:42.372Z,24.21
2016-11-29T04:57:23.116Z,24.15
2016-11-29T04:58:03.894Z,24.15
2016-11-29T04:58:44.651Z,24.12
2016-11-29T04:59:25.373Z,24.15
2016-11-29T05:00:06.162Z,24.21
2016-11-29T05:00:46.906Z,24.18
2016-11-29T05:01:27.676Z,24.13
2016-11-29T05:02:08.434Z,24.12
2016-11-29T05:02:49.218Z,24.06
2016-11-29T05:03:29.979Z,24.15
2016-11-29T05:04:10.748Z,24.16
2016-11-29T05:04:51.523Z,24.16
2016-11-29T05:05:32.279Z,24.15
2016-11-29T05:06:13.033Z,24.2
2016-11-29T05:06:53.802Z,24.15
2016-11-29T05:07:34.552Z,24.12
2016-11-29T05:08:15.301Z,24.16
2016-11-29T05:08:56.084Z,24.18
2016-11-29T05:09:36.865Z,24.16
2016-11-29T05:10:17.613Z,24.09
2016-11-29T05:10:58.387Z,24.06
2016-11-29T05:11:39.157Z,24.09
2016-11-29T05:12:19.916Z,24.08
2016-11-29T05:13:00.682Z,24.1
2016-11-29T05:13:41.464Z,24.12
2016-11-29T05:14:22.199Z,24.15
2016-11-29T05:15:02.948Z,24.18
2016-11-29T05:15:43.726Z,24.16
2016-11-29T05:16:24.470Z,24.1
2016-11-29T05:17:05.248Z,24.12
2016-11-29T05:17:46.004Z,24.15
2016-11-29T05:18:26.759Z,24.13
2016-11-29T05:19:07.487Z,24.18
2016-11-29T05:19:48.247Z,24.13
2016-11-29T05:20:29.017Z,24.13
2016-11-29T05:21:09.734Z,24.16
2016-11-29T05:21:50.509Z,24.13
2016-11-29T05:22:31.286Z,24.1
2016-11-29T05:23:12.043Z,24.1
2016-11-29T05:23:52.798Z,24.15
2016-11-29T05:24:33.566Z,24.15
2016-11-29T05:25:14.317Z,24.08
2016-11-29T05:25:55.078Z,24.09
2016-11-29T05:26:35.857Z,24.12
2016-11-29T05:27:16.596Z,24.12
2016-11-29T05:27:57.337Z,24.08
2016-11-29T05:28:38.105Z,24.18
2016-11-29T05:29:18.872Z,24.12
2016-11-29T05:29:59.620Z,24.09
2016-11-29T05:30:40.377Z,24.12
2016-11-29T05:31:21.145Z,24.15
2016-11-29T05:32:01.872Z,24.09
2016-11-29T05:32:42.640Z,24.1
2016-11-29T05:33:23.423Z,24.12
2016-11-29T05:34:04.168Z,24.09
2016-11-29T05:34:44.914Z,24.1
2016-11-29T05:35:25.668Z,24.05
2016-11-29T05:36:06.418Z,24.12
2016-11-29T05:36:47.166Z,24.08
2016-11-29T05:37:27.944Z,24.1
2016-11-29T05:38:08.680Z,24.1
2016-11-29T05:38:49.450Z,24.1
2016-11-29T05:39:30.216Z,24.12
2016-11-29T05:40:10.983Z,24.08
2016-11-29T05:40:51.731Z,24.09
2016-11-29T05:41:32.492Z,24.08
2016-11-29T05:42:13.254Z,24.06
2016-11-29T05:42:53.995Z,24.09
2016-11-29T05:43:34.763Z,24.06
2016-11-29T05:44:15.532Z,24.08
2016-11-29T05:44:56.277Z,24.12
2016-11-29T05:45:37.024Z,24.1
2016-11-29T05:46:17.800Z,24.1
2016-11-29T05:46:58.551Z,24.08
2016-11-29T05:47:39.300Z,24.06
2016-11-29T05:48:20.101Z,24.1
2016-11-29T05:49:00.846Z,24.09
2016-11-29T05:49:41.605Z,24.1
2016-11-29T05:50:22.359Z,24.1
2016-11-29T05:51:03.124Z,24.12
2016-11-29T05:51:43.860Z,24.09
2016-11-29T05:52:24.612Z,24.05
2016-11-29T05:53:05.395Z,24.08
2016-11-29T05:53:46.128Z,24.15
2016-11-29T05:54:26.894Z,24.1
2016-11-29T05:55:07.648Z,24.09
2016-11-29T05:55:48.391Z,24.08
2016-11-29T05:56:29.154Z,24.05
2016-11-29T05:57:09.930Z,24.08
2016-11-29T05:57:50.670Z,24.1
2016-11-29T05:58:31.417Z,24.1
2016-11-29T05:59:12.192Z,24.08
2016-11-29T05:59:52.929Z,24.09
2016-11-29T06:00:33.685Z,24.1
2016-11-29T06:01:14.448Z,24.09
2016-11-29T06:01:55.200Z,24.05
2016-11-29T06:02:35.923Z,24.1
2016-11-29T06:03:16.682Z,24.1
2016-11-29T06:03:57.439Z,24.02
2016-11-29T06:04:38.178Z,24.06
2016-11-29T06:05:18.936Z,24.06
2016-11-29T06:05:59.698Z,24.02
2016-11-29T06:06:40.453Z,24.02
2016-11-29T06:07:21.217Z,24.06
2016-11-29T06:08:01.990Z,24.08
2016-11-29T06:08:42.744Z,24.05
2016-11-29T06:09:23.509Z,24.06
2016-11-29T06:10:04.283Z,24.1
2016-11-29T06:10:45.040Z,24.06
2016-11-29T06:11:25.776Z,24.03
2016-11-29T06:12:06.538Z,24.03
2016-11-29T06:12:47.289Z,24.08
2016-11-29T06:13:28.047Z,24.03
2016-11-29T06:14:08.793Z,24.1
2016-11-29T06:14:49.545Z,24.12
2016-11-29T06:15:30.294Z,24.03
2016-11-29T06:16:11.054Z,24.03
2016-11-29T06:16:51.804Z,23.98
2016-11-29T06:17:32.566Z,24.03
2016-11-29T06:18:13.319Z,24.09
2016-11-29T06:18:54.074Z,24.06
2016-11-29T06:19:34.826Z,24.09
2016-11-29T06:20:15.573Z,24.13
2016-11-29T06:20:56.355Z,24.08
2016-11-29T06:21:37.112Z,24.06
2016-11-29T06:22:17.888Z,24.03
2016-11-29T06:22:58.642Z,24.06
2016-11-29T06:23:39.416Z,24.03
2016-11-29T06:24:20.149Z,24.1
2016-11-29T06:25:00.919Z,24.06
2016-11-29T06:25:41.688Z,24.09
2016-11-29T06:26:22.442Z,24.08
2016-11-29T06:27:03.199Z,24.1
2016-11-29T06:27:43.970Z,24.08
2016-11-29T06:28:24.710Z,24.05
2016-11-29T06:29:05.461Z,24.09
2016-11-29T06:29:46.233Z,24.1
2016-11-29T06:30:27.000Z,24.08
2016-11-29T06:31:07.766Z,24.13
2016-11-29T06:31:48.548Z,24.1
2016-11-29T06:32:29.293Z,24.06
2016-11-29T06:33:10.061Z,24.08
2016-11-29T06:33:50.844Z,24.03
2016-11-29T06:34:31.650Z,24.05
2016-11-29T06:35:12.385Z,24.06
2016-11-29T06:35:53.162Z,24.06
2016-11-29T06:36:33.895Z,24.06
2016-11-29T06:37:14.630Z,24.06
2016-11-29T06:37:55.412Z,24.06
2016-11-29T06:38:36.175Z,24.09
2016-11-29T06:39:16.939Z,24.08
2016-11-29T06:39:57.697Z,24.03
2016-11-29T06:40:38.455Z,24.12
2016-11-29T06:41:19.210Z,24.1
2016-11-29T06:41:59.959Z,24.08
2016-11-29T06:42:40.755Z,24.09
2016-11-29T06:43:21.514Z,24.09
2016-11-29T06:44:02.288Z,24.08
2016-11-29T06:44:43.052Z,24.03
2016-11-29T06:45:23.792Z,24.08
2016-11-29T06:46:04.560Z,24.13
2016-11-29T06:46:45.304Z,24.03
2016-11-29T06:47:26.068Z,24.08
2016-11-29T06:48:06.885Z,24.08
2016-11-29T06:48:47.630Z,24.08
2016-11-29T06:49:28.394Z,24.08
2016-11-29T06:50:09.139Z,24.1
2016-11-29T06:50:49.911Z,24.03
2016-11-29T06:51:30.676Z,24.1
2016-11-29T06:52:11.435Z,24.08
2016-11-29T06:52:52.188Z,24.08
2016-11-29T06:53:32.936Z,24.1
2016-11-29T06:54:13.706Z,24.08
2016-11-29T06:54:54.497Z,24.03
2016-11-29T06:55:35.270Z,24.1
2016-11-29T06:56:16.010Z,24.13
2016-11-29T06:56:56.800Z,24.06
2016-11-29T06:57:37.565Z,24.1
2016-11-29T06:58:18.306Z,24.09
2016-11-29T06:58:59.086Z,24.08
2016-11-29T06:59:39.819Z,24.08
2016-11-29T07:00:20.598Z,24.1
2016-11-29T07:01:01.376Z,24.08
2016-11-29T07:01:42.129Z,24.06
2016-11-29T07:02:22.865Z,24.09
2016-11-29T07:03:03.635Z,24.15
2016-11-29T07:03:44.391Z,24.09
2016-11-29T07:04:25.125Z,24.12
2016-11-29T07:05:05.901Z,24.08
2016-11-29T07:05:46.670Z,24.05
2016-11-29T07:06:27.434Z,24.1
2016-11-29T07:07:08.189Z,24.12
2016-11-29T07:07:48.976Z,24.09
2016-11-29T07:08:29.738Z,24.06
2016-11-29T07:09:10.495Z,24.08
2016-11-29T07:09:51.267Z,24.09
2016-11-29T07:10:32.016Z,24.1
2016-11-29T07:11:13.425Z,24.12
2016-11-29T07:11:54.212Z,24.08
2016-11-29T07:12:34.971Z,24.1
2016-11-29T07:13:15.705Z,24.09
2016-11-29T07:13:56.479Z,24.12
2016-11-29T07:14:37.238Z,24.12
2016-11-29T07:15:17.977Z,24.15
2016-11-29T07:15:58.755Z,24.06
2016-11-29T07:16:39.523Z,24.09
2016-11-29T07:17:20.263Z,24.09
2016-11-29T07:18:01.047Z,24.06
2016-11-29T07:18:41.819Z,24.12
2016-11-29T07:19:22.588Z,24.16
2016-11-29T07:20:03.350Z,24.22
2016-11-29T07:20:44.133Z,24.22
2016-11-29T07:21:24.885Z,24.09
2016-11-29T07:22:05.648Z,24.2
2016-11-29T07:22:46.395Z,24.25
2016-11-29T07:23:27.176Z,24.28
2016-11-29T07:24:07.909Z,24.3
2016-11-29T07:24:48.671Z,24.28
2016-11-29T07:25:29.429Z,24.22
2016-11-29T07:26:10.166Z,24.28
2016-11-29T07:26:50.948Z,24.34
2016-11-29T07:27:31.732Z,24.28
2016-11-29T07:28:12.469Z,24.3
2016-11-29T07:28:53.262Z,24.28
2016-11-29T07:29:34.050Z,24.3
2016-11-29T07:30:14.813Z,24.39
2016-11-29T07:30:55.563Z,24.32
2016-11-29T07:31:36.355Z,24.28
2016-11-29T07:32:17.103Z,24.35
2016-11-29T07:32:57.870Z,24.32
2016-11-29T07:33:38.636Z,24.32
2016-11-29T07:34:19.403Z,24.43
2016-11-29T07:35:00.147Z,24.34
2016-11-29T07:35:40.949Z,24.35
2016-11-29T07:36:21.744Z,24.4
2016-11-29T07:37:02.475Z,24.34
2016-11-29T07:37:43.295Z,24.3
2016-11-29T07:38:24.067Z,24.42
2016-11-29T07:39:04.828Z,24.39
2016-11-29T07:39:45.625Z,24.35
2016-11-29T07:40:26.426Z,24.37
2016-11-29T07:41:07.201Z,24.43
2016-11-29T07:41:47.956Z,24.39
2016-11-29T07:42:28.729Z,24.4
2016-11-29T07:43:09.518Z,24.46
2016-11-29T07:43:50.285Z,24.47
2016-11-29T07:44:31.058Z,24.5
2016-11-29T07:45:11.827Z,24.4
2016-11-29T07:45:52.584Z,24.43
2016-11-29T07:46:33.337Z,24.43
2016-11-29T07:47:14.110Z,24.4
2016-11-29T07:47:54.866Z,24.45
2016-11-29T07:48:35.642Z,24.46
2016-11-29T07:49:16.425Z,24.43
2016-11-29T07:49:57.180Z,24.5
2016-11-29T07:50:37.965Z,24.52
2016-11-29T07:51:18.746Z,24.52
2016-11-29T07:51:59.502Z,24.45
2016-11-29T07:52:40.250Z,24.5
2016-11-29T07:53:21.045Z,24.5
2016-11-29T07:54:01.781Z,24.46
2016-11-29T07:54:42.538Z,24.47
2016-11-29T07:55:23.296Z,24.47
2016-11-29T07:56:04.113Z,24.5
2016-11-29T07:56:44.886Z,24.47
2016-11-29T07:57:25.657Z,24.47
2016-11-29T07:58:06.435Z,24.5
2016-11-29T07:58:47.175Z,24.55
2016-11-29T07:59:27.955Z,24.55
2016-11-29T08:00:08.721Z,24.55
2016-11-29T08:00:49.487Z,24.53
2016-11-29T08:01:30.245Z,24.57
2016-11-29T08:02:11.547Z,24.5
2016-11-29T08:02:52.328Z,24.57
2016-11-29T08:03:33.090Z,24.55
2016-11-29T08:04:13.925Z,24.61
2016-11-29T08:04:54.703Z,24.49
2016-11-29T08:05:35.452Z,24.55
2016-11-29T08:06:16.241Z,24.6
2016-11-29T08:06:57.057Z,24.57
2016-11-29T08:07:37.845Z,24.61
2016-11-29T08:08:19.503Z,24.67
2016-11-29T08:09:00.294Z,24.58
2016-11-29T08:09:41.041Z,24.57
2016-11-29T08:10:21.832Z,24.61
2016-11-29T08:11:02.597Z,24.65
2016-11-29T08:11:43.353Z,24.58
2016-11-29T08:12:24.135Z,24.53
2016-11-29T08:13:04.949Z,24.6
2016-11-29T08:13:45.715Z,24.55
2016-11-29T08:14:26.497Z,24.6
2016-11-29T08:15:07.287Z,24.55
2016-11-29T08:15:48.062Z,24.64
2016-11-29T08:16:28.830Z,24.61
2016-11-29T08:17:09.626Z,24.61
2016-11-29T08:17:50.388Z,24.61
2016-11-29T08:18:31.120Z,24.65
2016-11-29T08:19:11.908Z,24.62
2016-11-29T08:19:52.669Z,24.61
2016-11-29T08:20:33.429Z,24.6
2016-11-29T08:21:14.235Z,24.61
2016-11-29T08:21:55.000Z,24.65
2016-11-29T08:22:35.785Z,24.61
2016-11-29T08:23:16.569Z,24.58
2016-11-29T08:23:57.372Z,24.53
2016-11-29T08:24:38.129Z,24.57
2016-11-29T08:25:18.896Z,24.61
2016-11-29T08:25:59.686Z,24.58
2016-11-29T08:26:40.459Z,24.58
2016-11-29T08:27:21.235Z,24.57
2016-11-29T08:28:02.002Z,24.6
2016-11-29T08:28:42.774Z,24.57
2016-11-29T08:29:23.536Z,24.6
2016-11-29T08:30:04.314Z,24.6
2016-11-29T08:30:45.103Z,24.6
2016-11-29T08:31:25.873Z,24.62
2016-11-29T08:32:06.668Z,24.61
2016-11-29T08:32:47.502Z,24.61
2016-11-29T08:33:28.303Z,24.62
2016-11-29T08:34:09.046Z,24.61
2016-11-29T08:34:49.836Z,24.61
2016-11-29T08:35:30.628Z,24.57
2016-11-29T08:36:11.439Z,24.61
2016-11-29T08:36:52.253Z,24.61
2016-11-29T08:37:33.036Z,24.61
2016-11-29T08:38:13.821Z,24.6
2016-11-29T08:38:54.581Z,24.61
2016-11-29T08:39:35.369Z,24.61
2016-11-29T08:40:16.146Z,24.61
2016-11-29T08:40:56.912Z,24.65
2016-11-29T08:41:37.687Z,24.62
2016-11-29T08:42:19.891Z,24.65
2016-11-29T08:43:00.683Z,24.62
2016-11-29T08:43:41.495Z,24.67
2016-11-29T08:44:22.274Z,24.62
2016-11-29T08:45:03.025Z,24.64
2016-11-29T08:45:44.278Z,24.64
2016-11-29T08:46:24.583Z,24.71
2016-11-29T08:47:05.365Z,24.65
2016-11-29T08:47:46.183Z,24.67
2016-11-29T08:48:26.959Z,24.61